Time;durP1;ratioP1;P1;durP2;ratioP2;P2;SDS_P1;SDS_P2;PMS_P1;PMS_P2;Temp;Humidity;BMP_temperature;BMP_pressure;BME280_temperature;BME280_humidity;BME280_pressure;Samples;Min_cycle;Max_cycle;Signal;HPM_P1;HPM_P2
2022/06/01 00:02:26;;;;;;;;;;;12.40;99.90;;;;;;5079918;28;20039;-57
2022/06/01 00:05:11;;;;;;;;;;;12.50;99.90;;;;;;5095097;28;19927;-57
2022/06/01 00:07:55;;;;;;;10.50;9.60;;;12.50;99.90;;;;;;5080078;28;20086;-56
2022/06/01 00:10:39;;;;;;;13.02;11.52;;;12.40;99.90;;;;;;5097029;28;20027;-56
2022/06/01 00:13:24;;;;;;;36.60;26.00;;;12.40;99.90;;;;;;5113628;28;20094;-55
2022/06/01 00:16:09;;;;;;;40.75;27.02;;;12.40;99.90;;;;;;5105230;28;20039;-56
2022/06/01 00:18:53;;;;;;;18.48;14.50;;;12.40;99.90;;;;;;5093166;28;20086;-50
2022/06/01 00:22:11;;;;;;;11.13;10.13;;;12.40;99.90;;;;;;5093441;28;20036;-55
2022/06/01 00:24:44;;;;;;;10.80;9.60;;;12.40;99.90;;;;;;5093084;28;20371;-56
2022/06/01 00:27:28;;;;;;;10.38;9.38;;;12.30;99.90;;;;;;5080410;28;20119;-56
2022/06/01 00:30:15;;;;;;;13.17;9.67;;;12.30;99.90;;;;;;5093468;28;20058;-54
2022/06/01 00:33:00;;;;;;;9.50;8.60;;;12.30;99.90;;;;;;5077893;28;20257;-54
2022/06/01 00:35:43;;;;;;;9.40;8.52;;;12.30;99.90;;;;;;5107402;28;20090;-55
2022/06/01 00:38:28;;;;;;;10.48;9.32;;;12.20;99.90;;;;;;5107277;28;20077;-54
2022/06/01 00:41:12;;;;;;;10.00;9.00;;;12.20;99.90;;;;;;5112114;28;20034;-56
2022/06/01 00:43:56;;;;;;;10.73;9.73;;;12.20;99.90;;;;;;5129523;27;20042;-56
2022/06/01 00:46:40;;;;;;;10.37;9.17;;;12.00;99.90;;;;;;5118372;27;20122;-54
2022/06/01 00:49:24;;;;;;;9.57;8.68;;;12.00;99.90;;;;;;5112556;28;20304;-54
2022/06/01 00:52:10;;;;;;;10.23;8.85;;;12.00;99.90;;;;;;5095901;28;20149;-52
2022/06/01 00:54:55;;;;;;;9.50;8.52;;;11.90;99.90;;;;;;5097954;28;20403;-52
2022/06/01 00:57:41;;;;;;;9.07;8.20;;;11.90;99.90;;;;;;5112013;28;20635;-54
2022/06/01 01:00:29;;;;;;;10.32;8.60;;;11.90;99.90;;;;;;5102621;28;20035;-56
2022/06/01 01:03:15;;;;;;;8.40;7.60;;;12.00;99.90;;;;;;5092429;28;20035;-51
2022/06/01 01:06:25;;;;;;;8.27;7.50;;;11.90;99.90;;;;;;5105312;28;20070;-59
2022/06/01 01:09:10;;;;;;;9.10;8.30;;;12.00;99.90;;;;;;5112319;28;20086;-51
2022/06/01 01:11:58;;;;;;;9.30;8.40;;;11.90;99.90;;;;;;5092164;28;20098;-52
2022/06/01 01:14:44;;;;;;;9.30;8.40;;;11.80;99.90;;;;;;5094075;28;20046;-54
2022/06/01 01:17:28;;;;;;;9.25;8.18;;;11.80;99.90;;;;;;5111558;28;20050;-54
2022/06/01 01:20:12;;;;;;;9.82;8.95;;;11.80;99.90;;;;;;5091201;28;20063;-52
2022/06/01 01:23:16;;;;;;;10.32;9.27;;;11.70;99.90;;;;;;5090820;28;20078;-55
2022/06/01 01:26:01;;;;;;;9.68;8.77;;;11.70;99.90;;;;;;5073959;28;20051;-54
2022/06/01 01:28:45;;;;;;;11.52;8.77;;;11.70;99.90;;;;;;5092230;28;20058;-51
2022/06/01 01:31:30;;;;;;;10.43;8.98;;;11.70;99.90;;;;;;5111901;28;20110;-54
2022/06/01 01:34:14;;;;;;;10.13;8.50;;;11.70;99.90;;;;;;5107895;28;20067;-55
2022/06/01 01:37:04;;;;;;;9.60;8.50;;;11.70;99.90;;;;;;5109556;28;20092;-54
2022/06/01 01:39:53;;;;;;;9.45;8.45;;;11.70;99.90;;;;;;5111223;28;20126;-54
2022/06/01 01:42:37;;;;;;;8.90;8.02;;;11.70;99.90;;;;;;5117761;27;20022;-55
2022/06/01 01:45:28;;;;;;;10.07;8.45;;;11.60;99.90;;;;;;5116409;27;20161;-56
2022/06/01 01:48:12;;;;;;;9.20;7.93;;;11.50;99.90;;;;;;5109969;28;20469;-56
2022/06/01 01:50:56;;;;;;;8.32;7.47;;;11.50;99.90;;;;;;5112223;28;20127;-54
2022/06/01 01:53:41;;;;;;;8.15;7.35;;;11.40;99.90;;;;;;5096742;28;20035;-51
2022/06/01 01:56:44;;;;;;;9.32;7.72;;;11.40;99.90;;;;;;5075756;28;20120;-52
2022/06/01 02:00:03;;;;;;;8.93;7.47;;;11.40;99.90;;;;;;5091627;28;20030;-51
2022/06/01 02:03:32;;;;;;;8.77;7.97;;;11.50;99.90;;;;;;5097681;28;20111;-56
2022/06/01 02:06:34;;;;;;;8.43;7.63;;;11.50;99.90;;;;;;5111132;28;20038;-55
2022/06/01 02:09:19;;;;;;;9.77;8.15;;;11.50;99.90;;;;;;5091924;28;20031;-51
2022/06/01 02:15:11;;;;;;;8.82;7.85;;;11.40;99.90;;;;;;5111217;28;20042;-55
2022/06/01 02:17:59;;;;;;;8.00;7.30;;;11.40;99.90;;;;;;5105175;28;20066;-54
2022/06/01 02:21:01;;;;;;;8.02;7.22;;;11.40;99.90;;;;;;5091311;28;20510;-53
2022/06/01 02:23:47;;;;;;;7.53;6.82;;;11.50;99.90;;;;;;5103670;28;20041;-53
2022/06/01 02:26:32;;;;;;;8.55;7.10;;;11.60;99.90;;;;;;5111311;28;20034;-52
2022/06/01 02:29:39;;;;;;;9.00;8.10;;;11.50;99.90;;;;;;5093922;28;20039;-55
2022/06/01 02:32:26;;;;;;;9.05;8.23;;;11.50;99.90;;;;;;5091811;28;20058;-55
2022/06/01 02:35:14;;;;;;;10.48;9.32;;;11.40;99.90;;;;;;5087963;28;20107;-55
2022/06/01 02:38:02;;;;;;;10.95;9.85;;;11.30;99.90;;;;;;5106500;28;20553;-54
2022/06/01 02:40:46;;;;;;;10.38;9.38;;;11.30;99.90;;;;;;5090875;28;20387;-54
2022/06/01 02:43:31;;;;;;;11.25;10.05;;;11.20;99.90;;;;;;5106639;28;20034;-52
2022/06/01 02:46:15;;;;;;;11.32;9.70;;;11.00;99.90;;;;;;5095313;28;20059;-55
2022/06/01 02:49:01;;;;;;;10.82;9.77;;;10.90;99.90;;;;;;5098698;28;20035;-54
2022/06/01 02:51:46;;;;;;;11.35;10.18;;;10.70;99.90;;;;;;5091177;28;20123;-59
2022/06/01 02:54:30;;;;;;;11.02;9.90;;;10.60;99.90;;;;;;5091953;28;20082;-51
2022/06/01 02:57:14;;;;;;;11.75;10.20;;;10.60;99.90;;;;;;5090349;28;20123;-54
2022/06/01 02:59:58;;;;;;;13.98;11.25;;;10.60;99.90;;;;;;5111228;28;20093;-54
2022/06/01 03:02:44;;;;;;;11.70;10.57;;;10.60;99.90;;;;;;5107465;28;20027;-56
2022/06/01 03:05:33;;;;;;;12.23;11.05;;;10.70;99.90;;;;;;5090027;28;20265;-55
2022/06/01 03:08:18;;;;;;;13.30;11.32;;;10.70;99.90;;;;;;5097278;28;20085;-56
2022/06/01 03:11:02;;;;;;;11.40;10.35;;;10.70;99.90;;;;;;5109765;28;20094;-54
2022/06/01 03:13:47;;;;;;;12.35;10.77;;;10.70;99.90;;;;;;5097715;28;20043;-55
2022/06/01 03:16:31;;;;;;;11.43;10.33;;;10.70;99.90;;;;;;5089529;28;20557;-53
2022/06/01 03:19:15;;;;;;;11.77;10.63;;;10.90;99.90;;;;;;5107393;28;20308;-54
2022/06/01 03:22:01;;;;;;;13.13;10.43;;;11.00;99.90;;;;;;5098819;28;20560;-55
2022/06/01 03:24:45;;;;;;;11.55;10.40;;;11.10;99.90;;;;;;5113107;28;20062;-55
2022/06/01 03:27:29;;;;;;;14.40;10.82;;;11.10;99.90;;;;;;5114145;28;20637;-58
2022/06/01 03:30:16;;;;;;;12.50;10.23;;;11.20;99.90;;;;;;5093858;28;20482;-56
2022/06/01 03:33:00;;;;;;;12.18;10.93;;;11.30;99.90;;;;;;5098622;28;20390;-57
2022/06/01 03:35:44;;;;;;;12.83;11.53;;;11.10;99.90;;;;;;5105940;28;20070;-53
2022/06/01 03:38:28;;;;;;;11.93;10.50;;;11.00;99.90;;;;;;5090717;28;20336;-57
2022/06/01 03:41:13;;;;;;;12.13;10.85;;;11.10;99.90;;;;;;5094297;28;20026;-57
2022/06/01 03:47:05;;;;;;;12.48;11.05;;;11.30;99.90;;;;;;5101126;28;20043;-55
2022/06/01 03:49:49;;;;;;;12.73;11.05;;;11.40;99.90;;;;;;5080511;28;20059;-53
2022/06/01 03:52:33;;;;;;;14.05;10.82;;;11.40;99.90;;;;;;5093656;28;20039;-54
2022/06/01 03:55:17;;;;;;;13.07;10.70;;;11.30;99.90;;;;;;5095788;28;20090;-55
2022/06/01 03:58:02;;;;;;;16.58;12.10;;;11.30;99.90;;;;;;5097752;28;20059;-58
2022/06/01 04:00:47;;;;;;;14.23;11.82;;;11.30;99.90;;;;;;5098903;28;20403;-57
2022/06/01 04:03:31;;;;;;;13.55;11.93;;;11.30;99.90;;;;;;5103429;28;20031;-56
2022/06/01 04:06:15;;;;;;;16.67;13.20;;;11.30;99.90;;;;;;5093210;28;20059;-56
2022/06/01 04:08:59;;;;;;;14.15;12.65;;;11.30;99.90;;;;;;5108158;28;20466;-56
2022/06/01 04:11:43;;;;;;;15.50;13.13;;;11.20;99.90;;;;;;5112003;28;20043;-53
2022/06/01 04:14:27;;;;;;;14.48;13.02;;;11.20;99.90;;;;;;5098750;28;20256;-55
2022/06/01 04:17:30;;;;;;;14.27;12.87;;;11.00;99.90;;;;;;5097356;28;20047;-56
2022/06/01 04:20:14;;;;;;;20.85;13.48;;;10.90;99.90;;;;;;5093211;28;20040;-55
2022/06/01 04:23:00;;;;;;;15.85;13.77;;;10.70;99.90;;;;;;5093699;28;20043;-54
2022/06/01 04:25:44;;;;;;;16.52;14.27;;;10.60;99.90;;;;;;5094479;28;20027;-56
2022/06/01 04:28:29;;;;;;;15.63;13.93;;;10.70;99.90;;;;;;5111503;28;20093;-59
2022/06/01 04:31:13;;;;;;;17.13;14.55;;;10.90;99.90;;;;;;5098190;28;20046;-57
2022/06/01 04:33:57;;;;;;;16.08;14.07;;;11.00;99.90;;;;;;5106641;28;20047;-57
2022/06/01 04:36:41;;;;;;;16.23;14.35;;;11.10;99.90;;;;;;5108294;28;20038;-59
2022/06/01 04:39:25;;;;;;;16.97;14.10;;;11.20;99.90;;;;;;5107825;28;20508;-57
2022/06/01 04:42:09;;;;;;;15.25;13.75;;;11.10;99.90;;;;;;5095392;27;20270;-56
2022/06/01 04:44:53;;;;;;;15.27;13.63;;;11.30;99.90;;;;;;5109933;28;20039;-56
2022/06/01 04:47:38;;;;;;;17.90;13.67;;;11.30;99.90;;;;;;5112538;28;20039;-58
2022/06/01 04:50:23;;;;;;;13.85;12.52;;;11.20;99.90;;;;;;5096918;28;20039;-59
2022/06/01 04:53:11;;;;;;;15.03;13.63;;;11.20;99.90;;;;;;5113587;28;20089;-53
2022/06/01 04:55:55;;;;;;;14.55;13.18;;;11.20;99.90;;;;;;5084864;28;20329;-56
2022/06/01 04:58:40;;;;;;;17.05;12.82;;;11.10;99.90;;;;;;5096912;28;20035;-56
2022/06/01 05:01:24;;;;;;;15.30;13.80;;;11.10;99.90;;;;;;5112331;28;20459;-55
2022/06/01 05:04:11;;;;;;;15.10;13.43;;;11.20;99.90;;;;;;5104814;28;20034;-60
2022/06/01 05:06:57;;;;;;;12.20;11.00;;;11.20;99.90;;;;;;5092582;28;20110;-55
2022/06/01 05:09:38;;;;;;;12.90;11.60;;;11.40;99.90;;;;;;5104021;28;20055;-59
2022/06/01 05:12:23;;;;;;;12.80;11.27;;;11.50;99.90;;;;;;5112767;28;20043;-58
2022/06/01 05:15:08;;;;;;;10.93;9.82;;;11.60;99.90;;;;;;5110903;28;20172;-53
2022/06/01 05:17:52;;;;;;;10.57;9.23;;;11.70;99.90;;;;;;5112623;28;20130;-58
2022/06/01 05:20:39;;;;;;;10.77;9.45;;;11.90;99.90;;;;;;5092579;28;20085;-58
2022/06/01 05:23:24;;;;;;;12.63;9.50;;;12.10;99.90;;;;;;5106594;28;20082;-58
2022/06/01 05:26:08;;;;;;;11.48;9.60;;;12.30;99.90;;;;;;5112226;28;20031;-56
2022/06/01 05:28:52;;;;;;;10.77;8.93;;;12.30;99.90;;;;;;5112037;28;20035;-55
2022/06/01 05:31:37;;;;;;;10.70;9.60;;;12.40;99.90;;;;;;5112803;28;20034;-58
2022/06/01 05:34:21;;;;;;;12.63;11.30;;;12.30;99.90;;;;;;5108360;28;20042;-56
2022/06/01 05:37:05;;;;;;;15.70;12.77;;;12.30;99.90;;;;;;5102354;28;20050;-57
2022/06/01 05:39:52;;;;;;;18.63;10.82;;;12.30;99.90;;;;;;5105176;28;20053;-60
2022/06/01 05:42:36;;;;;;;10.90;9.77;;;12.40;99.90;;;;;;5103175;27;20428;-56
2022/06/01 05:45:21;;;;;;;11.18;10.00;;;12.40;99.90;;;;;;5116025;27;20085;-56
2022/06/01 05:48:08;;;;;;;12.07;10.77;;;12.40;99.90;;;;;;5111931;28;20433;-55
2022/06/01 05:50:52;;;;;;;11.55;10.40;;;12.40;99.90;;;;;;5106473;28;20549;-57
2022/06/01 05:53:36;;;;;;;11.20;10.13;;;12.30;99.90;;;;;;5091991;28;20074;-58
2022/06/01 05:56:20;;;;;;;10.57;9.55;;;12.30;99.90;;;;;;5090955;28;20035;-56
2022/06/01 05:59:04;;;;;;;11.07;9.60;;;12.50;99.90;;;;;;5097301;28;20063;-59
2022/06/01 06:01:48;;;;;;;11.50;9.95;;;12.50;99.90;;;;;;5103230;27;20034;-55
2022/06/01 06:04:33;;;;;;;14.68;10.68;;;12.50;99.90;;;;;;5113859;27;20043;-55
2022/06/01 06:07:17;;;;;;;12.90;11.63;;;12.40;99.90;;;;;;5098581;28;20724;-57
2022/06/01 06:10:01;;;;;;;13.90;11.77;;;12.20;99.90;;;;;;5111051;28;20045;-55
2022/06/01 06:12:45;;;;;;;13.90;12.10;;;12.20;99.90;;;;;;5111562;28;20063;-56
2022/06/01 06:15:29;;;;;;;15.07;10.65;;;12.30;99.90;;;;;;5101655;28;20039;-55
2022/06/01 06:18:14;;;;;;;12.20;10.20;;;12.40;99.90;;;;;;5112000;28;20097;-55
2022/06/01 06:20:58;;;;;;;15.52;10.93;;;12.50;99.90;;;;;;5094734;28;20410;-58
2022/06/01 06:23:41;;;;;;;21.13;12.13;;;12.40;99.90;;;;;;5091334;28;20028;-57
2022/06/01 06:26:26;;;;;;;17.65;11.35;;;12.30;99.90;;;;;;5090577;28;20131;-57
2022/06/01 06:29:11;;;;;;;14.40;11.90;;;12.40;99.90;;;;;;5090725;28;20047;-57
2022/06/01 06:31:55;;;;;;;12.95;11.15;;;12.50;99.90;;;;;;5090337;28;20277;-56
2022/06/01 06:34:39;;;;;;;14.45;10.45;;;12.70;99.90;;;;;;5073954;28;20043;-56
2022/06/01 06:37:23;;;;;;;12.75;11.45;;;12.60;99.90;;;;;;5089564;28;20039;-58
2022/06/01 06:40:08;;;;;;;11.55;10.45;;;12.60;99.90;;;;;;5088847;28;20671;-59
2022/06/01 06:42:53;;;;;;;12.25;11.05;;;12.60;99.90;;;;;;5118927;28;20033;-57
2022/06/01 06:45:37;;;;;;;12.18;10.63;;;12.70;99.90;;;;;;5097502;28;20593;-58
2022/06/01 06:48:21;;;;;;;12.85;9.90;;;12.70;99.90;;;;;;5095844;28;20054;-57
2022/06/01 06:51:06;;;;;;;13.95;10.73;;;12.70;99.90;;;;;;5090738;28;20050;-57
2022/06/01 06:53:50;;;;;;;12.43;9.05;;;12.70;99.90;;;;;;5091370;28;20047;-55
2022/06/01 06:56:35;;;;;;;10.50;8.73;;;12.80;99.90;;;;;;5096548;28;20035;-55
2022/06/01 06:59:19;;;;;;;9.30;7.90;;;12.70;99.90;;;;;;5112280;28;20395;-57
2022/06/01 07:02:03;;;;;;;9.47;8.37;;;12.70;99.90;;;;;;5120456;27;20447;-55
2022/06/01 07:04:47;;;;;;;10.82;7.95;;;12.70;99.90;;;;;;5119964;27;20082;-53
2022/06/01 07:07:31;;;;;;;8.13;7.17;;;12.80;99.90;;;;;;5113018;28;20046;-55
2022/06/01 07:10:16;;;;;;;6.60;6.00;;;12.90;99.90;;;;;;5113668;28;20668;-59
2022/06/01 07:13:00;;;;;;;6.97;6.13;;;12.80;99.90;;;;;;5090339;27;20504;-57
2022/06/01 07:15:44;;;;;;;6.57;5.88;;;12.70;99.90;;;;;;5118772;27;20070;-61
2022/06/01 07:18:29;;;;;;;6.32;5.72;;;12.70;99.90;;;;;;5134421;27;20068;-58
2022/06/01 07:21:16;;;;;;;7.22;5.38;;;12.80;99.90;;;;;;5114791;27;20081;-54
2022/06/01 07:24:01;;;;;;;6.30;5.50;;;12.70;99.90;;;;;;5110727;28;20032;-56
2022/06/01 07:26:47;;;;;;;7.80;5.32;;;12.70;99.90;;;;;;5112882;28;20047;-58
2022/06/01 07:29:31;;;;;;;7.35;5.32;;;12.70;99.90;;;;;;5113548;28;20426;-57
2022/06/01 07:32:15;;;;;;;6.00;5.50;;;12.80;99.90;;;;;;5099202;28;20104;-58
2022/06/01 07:35:02;;;;;;;6.45;5.75;;;12.80;99.90;;;;;;5110050;28;20080;-57
2022/06/01 07:43:52;;;;;;;9.55;5.07;;;12.90;99.90;;;;;;5111968;28;20054;-57
2022/06/01 07:46:37;;;;;;;5.45;4.95;;;12.90;99.90;;;;;;5113576;28;20039;-56
2022/06/01 07:49:21;;;;;;;5.68;4.90;;;12.90;99.90;;;;;;5100627;28;20054;-56
2022/06/01 07:52:11;;;;;;;6.32;5.38;;;13.00;99.90;;;;;;5094925;28;20089;-54
2022/06/01 07:54:55;;;;;;;5.68;5.07;;;13.00;99.90;;;;;;5096986;28;20074;-58
2022/06/01 07:57:39;;;;;;;5.63;4.97;;;13.10;99.90;;;;;;5094075;28;20030;-58
2022/06/01 08:00:24;;;;;;;12.40;5.53;;;13.20;99.90;;;;;;5092891;28;20125;-55
2022/06/01 08:03:15;;;;;;;;;;;13.40;99.90;;;;;;5113932;28;20026;-56
2022/06/01 08:05:59;;;;;;;7.85;4.90;;;13.40;99.90;;;;;;5113311;28;20301;-55
2022/06/01 08:08:46;;;;;;;7.40;4.33;;;13.50;99.90;;;;;;5100986;28;20043;-57
2022/06/01 08:14:34;;;;;;;5.20;4.70;;;13.70;99.90;;;;;;5111626;28;20042;-57
2022/06/01 08:17:21;;;;;;;5.47;4.35;;;13.70;99.90;;;;;;5112434;28;20477;-56
2022/06/01 08:20:05;;;;;;;4.88;3.90;;;13.60;99.90;;;;;;5092901;28;20039;-58
2022/06/01 08:22:52;;;;;;;5.07;3.95;;;13.70;99.90;;;;;;5095397;28;20039;-58
2022/06/01 08:25:37;;;;;;;4.68;4.18;;;13.70;99.90;;;;;;5090334;28;20108;-53
2022/06/01 08:28:27;;;;;;;5.20;4.50;;;13.80;99.90;;;;;;5099645;28;20081;-57
2022/06/01 08:31:15;;;;;;;4.65;4.18;;;14.00;99.90;;;;;;5098168;28;20038;-59
2022/06/01 08:34:01;;;;;;;4.32;3.70;;;14.30;99.90;;;;;;5112397;28;20043;-58
2022/06/01 08:36:47;;;;;;;5.32;4.10;;;14.60;99.90;;;;;;5097032;28;20039;-55
2022/06/01 08:39:31;;;;;;;4.45;4.05;;;14.70;99.90;;;;;;5082304;28;20046;-56
2022/06/01 08:42:20;;;;;;;4.03;3.63;;;14.70;99.90;;;;;;5097583;27;20031;-58
2022/06/01 08:45:07;;;;;;;4.32;3.70;;;14.80;99.90;;;;;;5112193;27;20046;-57
2022/06/01 08:47:51;;;;;;;5.70;4.10;;;15.00;99.90;;;;;;5111059;28;20037;-56
2022/06/01 08:50:41;;;;;;;5.30;3.90;;;15.20;99.90;;;;;;5097531;28;20046;-56
2022/06/01 08:53:25;;;;;;;5.75;3.60;;;15.20;99.90;;;;;;5105551;28;20106;-59
2022/06/01 08:56:25;;;;;;;6.70;3.53;;;15.10;99.90;;;;;;5092096;28;20082;-56
2022/06/01 08:59:22;;;;;;;4.95;3.45;;;15.30;99.80;;;;;;5096023;28;20043;-57
2022/06/01 09:02:36;;;;;;;4.53;3.67;;;15.30;99.90;;;;;;5103770;28;20035;-59
2022/06/01 09:05:44;;;;;;;3.58;3.28;;;15.30;99.90;;;;;;5093393;28;20039;-57
2022/06/01 09:08:41;;;;;;;7.80;3.60;;;15.40;99.30;;;;;;5112862;28;20111;-59
2022/06/01 09:11:37;;;;;;;3.85;3.45;;;15.40;99.90;;;;;;5101600;28;20039;-56
2022/06/01 09:14:28;;;;;;;4.88;3.40;;;15.50;99.20;;;;;;5081092;28;20071;-58
2022/06/01 09:17:13;;;;;;;3.65;3.20;;;15.50;99.90;;;;;;5132096;27;20065;-54
2022/06/01 09:23:03;;;;;;;4.60;3.05;;;15.60;99.40;;;;;;5113265;28;20031;-62
2022/06/01 09:25:53;;;;;;;4.05;3.00;;;15.70;99.50;;;;;;5091601;28;20114;-59
2022/06/01 09:28:43;;;;;;;4.60;3.13;;;15.70;98.70;;;;;;5100772;28;20035;-58
2022/06/01 09:31:36;;;;;;;4.47;2.70;;;15.90;98.50;;;;;;5112962;28;20071;-62
2022/06/01 09:34:44;;;;;;;4.15;2.80;;;16.00;97.90;;;;;;5112452;28;20034;-61
2022/06/01 09:37:33;;;;;;;3.97;2.67;;;16.00;97.80;;;;;;5112335;28;20089;-55
2022/06/01 09:40:21;;;;;;;4.25;2.83;;;16.10;96.80;;;;;;5093456;28;20027;-57
2022/06/01 09:43:05;;;;;;;3.42;2.58;;;16.40;96.40;;;;;;5093452;28;20031;-57
2022/06/01 09:45:56;;;;;;;4.00;3.10;;;16.60;95.50;;;;;;5088794;28;20035;-57
2022/06/01 09:48:46;;;;;;;3.75;2.60;;;16.70;95.10;;;;;;5084772;28;20086;-60
2022/06/01 09:51:33;;;;;;;4.38;3.10;;;16.90;95.50;;;;;;5075992;28;20026;-60
2022/06/01 09:54:20;;;;;;;3.17;2.67;;;16.80;94.90;;;;;;5092122;28;20046;-58
2022/06/01 09:57:28;;;;;;;3.25;2.90;;;16.90;95.20;;;;;;5090403;28;20031;-57
2022/06/01 10:06:35;;;;;;;;;;;17.20;94.70;;;;;;5109831;28;20109;-55
2022/06/01 10:09:22;;;;;;;3.97;2.72;;;17.20;93.50;;;;;;5111834;28;20374;-56
2022/06/01 10:12:29;;;;;;;2.65;2.40;;;17.20;93.10;;;;;;5103870;28;20058;-58
2022/06/01 10:15:46;;;;;;;5.10;2.58;;;17.20;94.00;;;;;;5090672;28;20035;-58
2022/06/01 10:19:02;;;;;;;3.65;2.30;;;17.20;94.00;;;;;;5104993;28;20050;-59
2022/06/01 10:21:56;;;;;;;2.40;2.20;;;17.10;93.70;;;;;;5091359;28;20742;-58
2022/06/01 10:24:48;;;;;;;2.97;2.00;;;17.10;93.60;;;;;;5096237;28;20038;-54
2022/06/01 10:27:53;;;;;;;2.75;2.30;;;17.30;93.50;;;;;;5075351;28;20043;-57
2022/06/01 10:30:40;;;;;;;3.78;2.20;;;17.50;93.30;;;;;;5101848;28;20035;-57
2022/06/01 10:33:34;;;;;;;2.42;2.10;;;17.20;93.90;;;;;;5080284;28;20086;-60
2022/06/01 10:36:44;;;;;;;5.53;2.72;;;17.10;93.80;;;;;;5094700;28;20035;-58
2022/06/01 10:39:35;;;;;;;5.10;2.58;;;17.40;93.70;;;;;;5095255;28;20059;-58
2022/06/01 10:43:16;;;;;;;3.33;2.50;;;17.50;93.80;;;;;;5090182;27;20042;-59
2022/06/01 10:45:53;;;;;;;5.43;2.63;;;17.50;94.00;;;;;;5134916;27;20042;-59
2022/06/01 10:48:45;;;;;;;4.25;2.70;;;17.70;94.20;;;;;;5117724;27;20039;-58
2022/06/01 10:51:33;;;;;;;3.10;2.50;;;17.90;92.70;;;;;;5115934;28;20031;-56
2022/06/01 10:54:27;;;;;;;2.75;2.40;;;18.10;92.50;;;;;;5097612;28;20775;-62
2022/06/01 10:57:17;;;;;;;3.33;2.60;;;17.80;92.80;;;;;;5113418;28;20027;-54
2022/06/01 11:00:01;;;;;;;3.17;2.60;;;18.00;93.00;;;;;;5101848;28;20066;-59
2022/06/01 11:03:00;;;;;;;4.53;3.10;;;18.00;92.30;;;;;;5090583;28;20055;-59
2022/06/01 11:06:06;;;;;;;3.65;2.50;;;17.80;92.70;;;;;;5094549;28;20177;-59
2022/06/01 11:08:59;;;;;;;;;;;17.70;93.00;;;;;;5111947;28;20042;-60
2022/06/01 11:11:57;;;;;;;3.75;2.40;;;17.90;92.90;;;;;;5111840;28;20003;-57
2022/06/01 11:15:02;;;;;;;2.72;2.20;;;18.30;92.80;;;;;;5115386;28;20039;-59
2022/06/01 11:17:57;;;;;;;6.97;2.45;;;18.30;91.30;;;;;;5114844;28;20034;-60
2022/06/01 11:20:57;;;;;;;5.40;2.60;;;18.50;91.40;;;;;;5114384;28;20403;-59
2022/06/01 11:24:08;;;;;;;5.78;2.53;;;18.60;91.10;;;;;;5114672;28;20030;-56
2022/06/01 11:27:17;;;;;;;3.97;2.80;;;18.80;90.90;;;;;;5098619;28;20402;-54
2022/06/01 11:30:11;;;;;;;3.53;2.60;;;18.60;90.50;;;;;;5114757;28;20054;-56
2022/06/01 11:33:20;;;;;;;3.03;2.78;;;18.60;90.90;;;;;;5113810;28;20066;-54
2022/06/01 11:36:28;;;;;;;3.55;2.70;;;18.50;90.00;;;;;;5112119;27;20752;-58
2022/06/01 11:39:13;;;;;;;3.55;3.00;;;18.30;90.00;;;;;;5119689;27;20489;-57
2022/06/01 11:42:12;;;;;;;2.70;2.45;;;18.00;90.60;;;;;;5098070;28;20058;-53
2022/06/01 11:45:03;;;;;;;6.85;2.70;;;18.20;90.60;;;;;;5102393;28;20090;-54
2022/06/01 11:47:55;;;;;;;2.75;2.55;;;18.30;90.20;;;;;;5113896;28;20043;-53
2022/06/01 11:50:48;;;;;;;3.20;2.78;;;18.40;90.80;;;;;;5086188;28;20043;-57
2022/06/01 11:53:41;;;;;;;3.13;2.60;;;18.40;90.50;;;;;;5108865;28;20081;-58
2022/06/01 11:56:43;;;;;;;4.10;2.80;;;18.50;90.10;;;;;;5099231;28;20584;-58
2022/06/01 11:59:27;;;;;;;3.75;2.90;;;18.70;89.40;;;;;;5130413;27;20029;-56
2022/06/01 12:02:42;;;;;;;3.27;2.80;;;18.70;90.20;;;;;;5104741;28;20513;-55
2022/06/01 12:05:27;;;;;;;3.00;2.70;;;18.80;90.10;;;;;;5113266;28;20508;-51
2022/06/01 12:08:22;;;;;;;3.17;2.63;;;18.60;90.00;;;;;;5111851;28;20566;-56
2022/06/01 12:11:13;;;;;;;4.15;2.80;;;18.70;90.30;;;;;;5103398;28;20078;-58
2022/06/01 12:13:58;;;;;;;5.53;2.97;;;19.00;90.60;;;;;;5107676;28;20099;-58
2022/06/01 12:16:42;;;;;;;3.35;2.50;;;19.30;90.70;;;;;;5112073;28;20041;-57
2022/06/01 12:19:29;;;;;;;6.15;3.30;;;19.60;88.40;;;;;;5098780;28;20118;-57
2022/06/01 12:28:51;;;;;;;3.85;2.45;;;19.00;87.40;;;;;;5104415;27;20034;-54
2022/06/01 12:31:56;;;;;;;3.88;2.70;;;19.30;87.20;;;;;;5091289;28;20151;-55
2022/06/01 12:34:48;;;;;;;7.93;2.90;;;19.70;87.00;;;;;;5099852;28;20418;-57
2022/06/01 12:37:40;;;;;;;3.05;2.60;;;19.60;86.90;;;;;;5095777;28;20090;-56
2022/06/01 12:40:25;;;;;;;4.78;3.22;;;19.70;87.30;;;;;;5105192;28;20161;-56
2022/06/01 12:43:17;;;;;;;6.72;2.72;;;19.80;85.90;;;;;;5123415;27;20521;-60
2022/06/01 12:46:02;;;;;;;6.53;2.80;;;19.70;86.10;;;;;;5114856;27;20090;-56
2022/06/01 12:48:46;;;;;;;;;;;19.80;86.90;;;;;;5093138;28;20031;-57
2022/06/01 12:51:31;;;;;;;3.00;2.60;;;20.30;84.60;;;;;;5124285;27;19956;-54
2022/06/01 12:54:27;;;;;;;4.40;2.20;;;20.40;83.70;;;;;;5126511;27;20370;-56
2022/06/01 12:57:31;;;;;;;2.83;2.25;;;20.10;81.60;;;;;;5111926;28;20046;-59
2022/06/01 13:00:31;;;;;;;2.88;2.58;;;19.80;80.70;;;;;;5102645;27;20386;-56
2022/06/01 13:03:18;;;;;;;3.22;2.30;;;20.10;79.60;;;;;;5109616;28;20209;-57
2022/06/01 13:06:12;;;;;;;4.13;2.17;;;20.00;79.80;;;;;;5091780;28;20082;-57
2022/06/01 13:09:00;;;;;;;4.97;2.75;;;19.80;82.10;;;;;;5111233;28;20038;-58
2022/06/01 13:11:54;;;;;;;4.22;2.40;;;19.60;81.90;;;;;;5111440;28;20043;-59
2022/06/01 13:14:37;;;;;;;2.42;2.20;;;19.50;82.70;;;;;;5092044;28;20474;-58
2022/06/01 13:17:25;;;;;;;3.20;2.50;;;19.60;83.10;;;;;;5096885;28;20062;-58
2022/06/01 13:20:09;;;;;;;3.88;2.45;;;19.60;83.40;;;;;;5083095;28;20461;-60
2022/06/01 13:22:54;;;;;;;4.32;2.25;;;20.00;83.40;;;;;;5103047;28;20055;-56
2022/06/01 13:25:38;;;;;;;;;;;20.20;80.90;;;;;;5097034;28;20043;-57
2022/06/01 13:28:24;;;;;;;6.07;2.30;;;20.30;79.80;;;;;;5091891;28;20021;-58
2022/06/01 13:31:08;;;;;;;3.20;2.05;;;20.10;80.90;;;;;;5108049;28;20054;-60
2022/06/01 13:33:58;;;;;;;2.90;2.40;;;19.80;82.00;;;;;;5086140;28;20098;-57
2022/06/01 13:36:43;;;;;;;3.47;2.45;;;20.50;80.80;;;;;;5090661;28;20102;-55
2022/06/01 13:39:30;;;;;;;3.85;2.53;;;20.80;80.40;;;;;;5091935;28;20111;-58
2022/06/01 13:42:32;;;;;;;3.42;2.38;;;20.80;80.50;;;;;;5106313;27;20108;-58
2022/06/01 13:45:30;;;;;;;2.80;2.20;;;20.40;80.20;;;;;;5132315;27;20488;-53
2022/06/01 13:48:27;;;;;;;4.20;2.38;;;20.60;79.60;;;;;;5111673;28;20085;-55
2022/06/01 13:51:33;;;;;;;2.30;2.10;;;20.90;77.40;;;;;;5109676;28;20027;-60
2022/06/01 13:54:30;;;;;;;3.20;2.20;;;20.80;77.30;;;;;;5089127;28;20106;-57
2022/06/01 13:57:25;;;;;;;2.33;2.00;;;21.20;77.10;;;;;;5101733;28;20437;-58
2022/06/01 14:00:20;;;;;;;2.78;2.30;;;21.20;75.90;;;;;;5111431;28;20026;-57
2022/06/01 14:03:32;;;;;;;3.58;2.30;;;20.90;76.70;;;;;;5110979;28;20031;-54
2022/06/01 14:06:17;;;;;;;2.42;2.15;;;20.90;76.20;;;;;;5109390;28;20059;-54
2022/06/01 14:09:06;;;;;;;3.30;2.28;;;21.50;74.50;;;;;;5093935;28;20078;-49
2022/06/01 14:11:50;;;;;;;4.35;2.13;;;21.70;75.00;;;;;;5092034;28;20399;-55
2022/06/01 14:14:41;;;;;;;6.13;2.70;;;21.90;74.00;;;;;;5098801;28;20549;-48
2022/06/01 14:17:27;;;;;;;3.63;2.25;;;22.10;73.90;;;;;;5110897;28;20047;-49
2022/06/01 14:20:12;;;;;;;4.75;2.40;;;22.10;73.40;;;;;;5099006;28;20026;-53
2022/06/01 14:22:57;;;;;;;14.32;3.35;;;22.10;73.30;;;;;;5091068;28;20042;-53
2022/06/01 14:28:43;;;;;;;4.65;2.10;;;22.00;72.00;;;;;;5101645;28;20127;-53
2022/06/01 14:31:31;;;;;;;8.13;2.72;;;21.80;72.70;;;;;;5111344;28;20043;-49
2022/06/01 14:34:18;;;;;;;2.67;2.47;;;21.80;72.80;;;;;;5110509;28;20090;-54
2022/06/01 14:37:02;;;;;;;3.65;2.30;;;21.90;70.50;;;;;;5099935;28;20032;-54
2022/06/01 14:39:47;;;;;;;4.82;2.60;;;21.60;72.30;;;;;;5085471;28;20043;-56
2022/06/01 14:42:31;;;;;;;3.40;2.20;;;21.90;71.00;;;;;;5115910;28;20034;-56
2022/06/01 14:45:16;;;;;;;;;;;21.70;71.80;;;;;;5117595;28;20101;-53
2022/06/01 14:48:00;;;;;;;3.45;2.20;;;21.80;72.30;;;;;;5111789;28;20412;-55
2022/06/01 14:50:44;;;;;;;;;;;21.90;72.60;;;;;;5094840;28;20102;-54
2022/06/01 14:53:32;;;;;;;3.15;2.25;;;22.40;71.00;;;;;;5091189;28;20417;-57
2022/06/01 14:56:17;;;;;;;6.15;2.60;;;22.30;71.20;;;;;;5101868;28;20085;-54
2022/06/01 14:59:04;;;;;;;5.82;2.40;;;22.10;69.40;;;;;;5109119;28;20501;-57
2022/06/01 15:01:52;;;;;;;2.33;2.13;;;21.80;70.60;;;;;;5103047;28;20035;-57
2022/06/01 15:04:38;;;;;;;3.78;2.17;;;21.30;70.10;;;;;;5101514;28;20058;-57
2022/06/01 15:07:23;;;;;;;2.42;2.22;;;21.20;69.50;;;;;;5130997;28;20054;-53
2022/06/01 15:10:08;;;;;;;5.10;2.30;;;21.30;69.80;;;;;;5109735;28;20118;-53